Time;durP1;ratioP1;P1;durP2;ratioP2;P2;SDS_P1;SDS_P2;PMS_P1;PMS_P2;Temp;Humidity;BMP_temperature;BMP_pressure;BME280_temperature;BME280_humidity;BME280_pressure;Samples;Min_cycle;Max_cycle;Signal;HPM_P1;HPM_P2
2022/07/13 00:01:30;;;;;;;5.65;2.95;;;22.60;99.90;;;;;;5033971;28;20044;-36
2022/07/13 00:03:56;;;;;;;4.32;2.83;;;22.70;99.90;;;;;;5013249;28;20041;-38
2022/07/13 00:06:22;;;;;;;3.53;3.10;;;22.70;99.90;;;;;;5040253;28;20069;-38
2022/07/13 00:08:48;;;;;;;3.90;2.65;;;22.70;99.90;;;;;;5008160;28;20057;-39
2022/07/13 00:11:13;;;;;;;3.58;2.83;;;22.80;99.90;;;;;;5032539;28;20031;-38
2022/07/13 00:13:39;;;;;;;4.90;2.90;;;22.80;99.90;;;;;;5034325;28;20025;-40
2022/07/13 00:16:05;;;;;;;3.25;2.95;;;22.80;99.90;;;;;;5032238;28;20405;-39
2022/07/13 00:18:31;;;;;;;3.38;2.78;;;22.90;99.90;;;;;;5033405;28;20036;-38
2022/07/13 00:20:57;;;;;;;7.50;2.97;;;22.90;99.90;;;;;;5033275;28;20104;-45
2022/07/13 00:23:23;;;;;;;5.53;3.00;;;22.90;99.90;;;;;;5018639;28;20068;-38
2022/07/13 00:25:49;;;;;;;3.40;2.97;;;22.90;99.90;;;;;;5034173;28;20038;-38
2022/07/13 00:28:14;;;;;;;4.32;3.47;;;22.90;99.90;;;;;;5034505;28;20036;-38
2022/07/13 00:30:40;;;;;;;5.28;3.47;;;23.00;99.90;;;;;;5034111;28;20491;-40
2022/07/13 00:33:07;;;;;;;8.35;3.80;;;23.10;99.90;;;;;;5035621;28;20503;-39
2022/07/13 00:35:32;;;;;;;5.70;3.70;;;23.10;99.90;;;;;;5042598;28;20101;-39
2022/07/13 00:37:58;;;;;;;8.00;3.60;;;23.20;99.90;;;;;;5033104;28;20061;-39
2022/07/13 00:40:24;;;;;;;3.97;3.60;;;23.20;99.90;;;;;;5007644;28;20112;-39
2022/07/13 00:42:50;;;;;;;4.75;3.50;;;23.30;99.90;;;;;;5011135;28;20063;-39
2022/07/13 00:45:16;;;;;;;7.35;3.55;;;23.20;99.90;;;;;;5035004;28;20030;-39
2022/07/13 00:47:42;;;;;;;6.88;3.95;;;23.20;99.90;;;;;;5032895;28;20363;-35
2022/07/13 00:50:09;;;;;;;4.63;4.15;;;23.30;99.90;;;;;;5033200;28;20032;-33
2022/07/13 00:52:36;;;;;;;7.35;4.63;;;23.30;99.90;;;;;;5034734;28;20087;-35
2022/07/13 00:55:03;;;;;;;;;;;23.20;99.90;;;;;;5035091;28;20025;-31
2022/07/13 00:57:32;;;;;;;6.35;4.40;;;23.20;99.90;;;;;;5030813;28;19958;-34
2022/07/13 00:59:59;;;;;;;6.55;4.18;;;23.20;99.90;;;;;;5031708;28;20033;-31
2022/07/13 01:02:24;;;;;;;5.10;3.90;;;23.20;99.90;;;;;;5033790;28;20032;-32
2022/07/13 01:04:50;;;;;;;7.28;4.07;;;23.30;99.90;;;;;;5034481;28;20381;-32
2022/07/13 01:07:15;;;;;;;5.25;4.55;;;23.20;99.90;;;;;;5034744;28;20104;-30
2022/07/13 01:09:41;;;;;;;4.93;4.43;;;23.20;99.90;;;;;;5033529;28;21186;-34
2022/07/13 01:12:07;;;;;;;6.22;4.38;;;23.20;99.90;;;;;;5037669;28;20022;-30
2022/07/13 01:14:35;;;;;;;7.95;5.32;;;23.20;99.90;;;;;;5034228;28;20029;-33
2022/07/13 01:17:01;;;;;;;10.27;5.00;;;23.10;99.90;;;;;;5033856;28;20496;-29
2022/07/13 01:19:28;;;;;;;5.82;4.45;;;23.00;99.90;;;;;;5034978;28;20032;-35
2022/07/13 01:22:00;;;;;;;7.25;5.18;;;23.00;99.90;;;;;;5033558;28;20540;-31
2022/07/13 01:24:28;;;;;;;8.55;5.30;;;23.00;99.90;;;;;;5033657;28;20509;-31
2022/07/13 01:26:54;;;;;;;7.75;5.35;;;22.90;99.90;;;;;;5033396;28;20533;-30
2022/07/13 01:29:20;;;;;;;8.13;4.90;;;22.90;99.90;;;;;;5032921;28;20025;-35
2022/07/13 01:31:46;;;;;;;13.27;6.18;;;22.80;99.90;;;;;;5033179;28;20466;-31
2022/07/13 01:34:11;;;;;;;7.03;5.20;;;22.90;99.90;;;;;;5034298;28;20762;-32
2022/07/13 01:36:40;;;;;;;8.25;5.45;;;22.90;99.90;;;;;;5029938;28;20469;-31
2022/07/13 01:39:06;;;;;;;7.85;5.75;;;22.80;99.90;;;;;;5034821;28;20508;-33
2022/07/13 01:41:32;;;;;;;10.40;6.50;;;22.90;99.90;;;;;;5034798;28;20022;-30
2022/07/13 01:43:58;;;;;;;8.90;5.63;;;22.80;99.90;;;;;;5033270;28;20026;-35
2022/07/13 01:46:28;;;;;;;5.95;5.15;;;22.80;99.90;;;;;;5032097;28;20029;-37
2022/07/13 01:48:56;;;;;;;16.42;6.45;;;22.80;99.90;;;;;;5032403;28;20489;-32
2022/07/13 01:51:22;;;;;;;10.90;6.22;;;22.70;99.90;;;;;;5032909;28;20466;-30
2022/07/13 01:53:47;;;;;;;9.50;5.32;;;22.70;99.90;;;;;;5033045;28;20081;-36
2022/07/13 01:56:13;;;;;;;8.27;6.40;;;22.70;99.90;;;;;;5033535;28;20492;-30
2022/07/13 01:58:39;;;;;;;12.60;6.43;;;22.70;99.90;;;;;;5032764;28;20041;-34
2022/07/13 02:01:05;;;;;;;7.25;6.07;;;22.70;99.90;;;;;;5032792;28;20547;-30
2022/07/13 02:03:31;;;;;;;7.88;5.82;;;22.70;99.90;;;;;;5032046;28;20156;-31
2022/07/13 02:05:58;;;;;;;11.52;6.63;;;22.70;99.90;;;;;;5033459;28;20171;-29
2022/07/13 02:08:27;;;;;;;8.93;6.17;;;22.70;99.90;;;;;;5029805;28;20474;-33
2022/07/13 02:10:52;;;;;;;9.65;6.72;;;22.70;99.90;;;;;;5036066;28;20036;-33
2022/07/13 02:13:19;;;;;;;12.25;6.80;;;22.70;99.90;;;;;;5033287;28;20025;-35
2022/07/13 02:15:45;;;;;;;10.80;6.63;;;22.70;99.90;;;;;;5032576;28;20103;-31
2022/07/13 02:18:10;;;;;;;8.20;5.90;;;22.70;99.90;;;;;;5031924;28;20026;-33
2022/07/13 02:20:36;;;;;;;9.10;6.53;;;22.70;99.90;;;;;;5032404;28;20446;-39
2022/07/13 02:23:02;;;;;;;8.45;5.90;;;22.60;99.90;;;;;;5038285;28;20480;-39
2022/07/13 02:25:28;;;;;;;9.88;6.65;;;22.60;99.90;;;;;;5034972;28;20032;-51
2022/07/13 02:27:54;;;;;;;7.85;5.90;;;22.60;99.90;;;;;;5031011;28;20089;-32
2022/07/13 02:30:19;;;;;;;7.60;5.30;;;22.60;99.90;;;;;;5031512;28;20021;-39
2022/07/13 02:32:46;;;;;;;14.70;6.72;;;22.60;99.90;;;;;;5015236;28;20125;-38
2022/07/13 02:35:12;;;;;;;8.95;5.75;;;22.60;99.90;;;;;;5029627;28;20091;-40
2022/07/13 02:37:39;;;;;;;8.27;6.40;;;22.60;99.90;;;;;;5030694;28;20091;-37
2022/07/13 02:40:05;;;;;;;9.77;5.70;;;22.60;99.90;;;;;;5030085;28;20037;-48
2022/07/13 02:42:31;;;;;;;5.60;4.93;;;22.60;99.90;;;;;;5035355;28;20481;-39
2022/07/13 02:44:57;;;;;;;6.07;4.70;;;22.50;99.90;;;;;;5030748;28;20048;-39
2022/07/13 02:47:23;;;;;;;7.03;4.43;;;22.50;99.90;;;;;;5032022;28;20025;-39
2022/07/13 02:49:49;;;;;;;5.38;4.53;;;22.50;99.90;;;;;;5030885;28;20073;-41
2022/07/13 02:52:15;;;;;;;8.35;4.75;;;22.50;99.90;;;;;;5032724;28;20477;-39
2022/07/13 02:54:42;;;;;;;8.65;5.25;;;22.50;99.90;;;;;;5029544;28;20069;-39
2022/07/13 02:57:08;;;;;;;11.43;6.57;;;22.50;99.90;;;;;;4997822;28;20524;-39
2022/07/13 02:59:36;;;;;;;8.00;5.85;;;22.50;99.90;;;;;;5036701;28;20053;-39
2022/07/13 03:02:05;;;;;;;8.27;5.68;;;22.50;99.90;;;;;;5032045;28;20025;-38
2022/07/13 03:04:31;;;;;;;7.88;5.03;;;22.50;99.90;;;;;;5030864;28;20112;-32
2022/07/13 03:06:57;;;;;;;9.88;5.28;;;22.60;99.90;;;;;;5031482;28;20504;-30
2022/07/13 03:09:23;;;;;;;8.23;5.40;;;22.50;99.90;;;;;;5030746;28;20025;-32
2022/07/13 03:11:48;;;;;;;10.32;6.95;;;22.50;99.90;;;;;;5036247;28;20029;-35
2022/07/13 03:14:14;;;;;;;8.98;6.05;;;22.40;99.90;;;;;;5023664;28;20029;-31
2022/07/13 03:16:40;;;;;;;8.57;5.22;;;22.50;99.90;;;;;;5031757;28;20026;-35
2022/07/13 03:19:07;;;;;;;10.60;5.43;;;22.40;99.90;;;;;;5008277;28;20067;-35
2022/07/13 03:21:32;;;;;;;7.32;5.75;;;22.50;99.90;;;;;;5033721;28;20572;-32
2022/07/13 03:23:58;;;;;;;7.00;5.13;;;22.40;99.90;;;;;;5032335;28;20033;-38
2022/07/13 03:26:24;;;;;;;10.20;5.80;;;22.50;99.90;;;;;;5031401;28;20076;-34
2022/07/13 03:28:50;;;;;;;11.18;6.45;;;22.50;99.90;;;;;;5030765;28;20112;-38
2022/07/13 03:31:17;;;;;;;10.23;5.82;;;22.50;99.90;;;;;;5030934;28;20026;-39
2022/07/13 03:33:42;;;;;;;11.95;6.03;;;22.50;99.90;;;;;;5038400;28;20439;-37
2022/07/13 03:36:08;;;;;;;8.63;5.47;;;22.50;99.90;;;;;;5031449;28;20033;-38
2022/07/13 03:38:35;;;;;;;9.15;5.97;;;22.50;99.90;;;;;;5013163;28;20041;-39
2022/07/13 03:41:00;;;;;;;12.32;6.82;;;22.50;99.90;;;;;;5031062;28;20465;-39
2022/07/13 03:43:26;;;;;;;13.00;5.70;;;22.50;99.90;;;;;;5015901;28;20091;-38
2022/07/13 03:45:52;;;;;;;9.40;5.88;;;22.50;99.90;;;;;;5031915;28;20061;-58
2022/07/13 03:48:18;;;;;;;7.55;5.30;;;22.50;99.90;;;;;;5031141;28;20455;-39
2022/07/13 03:50:44;;;;;;;7.05;4.90;;;22.50;99.90;;;;;;5031566;28;20030;-38
2022/07/13 03:53:11;;;;;;;15.67;5.70;;;22.50;99.90;;;;;;5034784;28;20028;-39
2022/07/13 03:55:40;;;;;;;7.03;4.57;;;22.50;99.90;;;;;;5033698;28;20279;-39
2022/07/13 03:58:06;;;;;;;6.78;4.80;;;22.40;99.90;;;;;;5035315;28;20040;-34
2022/07/13 04:00:32;;;;;;;10.05;5.30;;;22.50;99.90;;;;;;5033300;28;20018;-39
2022/07/13 04:02:58;;;;;;;5.32;4.22;;;22.50;99.90;;;;;;5035857;28;20040;-39
2022/07/13 04:05:24;;;;;;;7.05;4.93;;;22.50;99.90;;;;;;5019348;28;20490;-31
2022/07/13 04:07:50;;;;;;;8.52;4.50;;;22.50;99.90;;;;;;5033076;28;20381;-31
2022/07/13 04:10:19;;;;;;;6.85;4.38;;;22.50;99.90;;;;;;5034461;28;20028;-31
2022/07/13 04:12:45;;;;;;;6.25;4.28;;;22.60;99.90;;;;;;5004274;28;20508;-32
2022/07/13 04:15:12;;;;;;;9.98;4.82;;;22.60;99.90;;;;;;5033496;28;20539;-32
2022/07/13 04:17:41;;;;;;;7.25;4.55;;;22.60;99.90;;;;;;5034334;28;20029;-33
2022/07/13 04:20:09;;;;;;;8.52;3.75;;;22.60;99.90;;;;;;5036304;28;20470;-36
2022/07/13 04:22:35;;;;;;;6.75;4.35;;;22.60;99.90;;;;;;5036371;28;20099;-32
2022/07/13 04:25:02;;;;;;;7.47;4.53;;;22.60;99.90;;;;;;5032031;28;20104;-32
2022/07/13 04:27:27;;;;;;;6.43;3.90;;;22.60;99.90;;;;;;5033089;28;20076;-38
2022/07/13 04:29:53;;;;;;;5.95;4.18;;;22.60;99.90;;;;;;5034670;28;20288;-58
2022/07/13 04:32:18;;;;;;;5.60;3.75;;;22.70;99.90;;;;;;5033429;28;20101;-39
2022/07/13 04:34:44;;;;;;;5.10;4.03;;;22.70;99.90;;;;;;5033671;28;20029;-39
2022/07/13 04:37:10;;;;;;;4.85;3.75;;;22.70;99.90;;;;;;5015994;28;20401;-39
2022/07/13 04:39:38;;;;;;;6.25;3.83;;;22.70;99.90;;;;;;5032051;28;20117;-39
2022/07/13 04:42:04;;;;;;;5.78;3.35;;;22.70;99.90;;;;;;5035234;28;20496;-38
2022/07/13 04:44:29;;;;;;;5.15;3.33;;;22.70;99.90;;;;;;5033547;28;20025;-37
2022/07/13 04:46:55;;;;;;;7.85;4.05;;;22.70;99.90;;;;;;5034709;28;20136;-39
2022/07/13 04:49:22;;;;;;;7.20;3.95;;;22.70;99.90;;;;;;5032609;28;20044;-40
2022/07/13 04:51:48;;;;;;;6.40;4.28;;;22.70;99.90;;;;;;5033629;28;20072;-47
2022/07/13 04:54:18;;;;;;;5.95;4.13;;;22.70;99.90;;;;;;5032610;28;20116;-39
2022/07/13 04:56:44;;;;;;;4.88;4.10;;;22.80;99.90;;;;;;5032511;28;20367;-32
2022/07/13 04:59:10;;;;;;;7.65;4.45;;;22.70;99.90;;;;;;5038004;28;20032;-32
2022/07/13 05:01:36;;;;;;;10.20;3.80;;;22.70;99.90;;;;;;5027134;28;20493;-32
2022/07/13 05:04:02;;;;;;;9.00;4.30;;;22.70;99.90;;;;;;5033358;28;20080;-30
2022/07/13 05:06:28;;;;;;;6.50;3.92;;;22.70;99.90;;;;;;5037747;28;20022;-32
2022/07/13 05:08:53;;;;;;;8.38;4.70;;;22.80;99.90;;;;;;5033209;28;21573;-35
2022/07/13 05:11:19;;;;;;;5.95;3.95;;;22.80;99.90;;;;;;5031825;28;20069;-58
2022/07/13 05:13:45;;;;;;;5.47;4.25;;;22.80;99.90;;;;;;5026221;28;20025;-39
2022/07/13 05:16:11;;;;;;;5.22;3.92;;;22.80;99.90;;;;;;5034285;28;20018;-39
2022/07/13 05:18:36;;;;;;;6.55;4.47;;;22.80;99.90;;;;;;5033644;28;20029;-39
2022/07/13 05:21:02;;;;;;;13.88;4.30;;;22.80;99.90;;;;;;5037018;28;20032;-39
2022/07/13 05:23:28;;;;;;;6.88;4.93;;;22.80;99.90;;;;;;5029830;28;20060;-39
2022/07/13 05:25:53;;;;;;;5.65;4.13;;;22.70;99.90;;;;;;5013115;28;20518;-39
2022/07/13 05:28:19;;;;;;;8.40;4.03;;;22.70;99.90;;;;;;5014964;28;20037;-38
2022/07/13 05:30:44;;;;;;;8.20;4.70;;;22.70;99.90;;;;;;5032443;28;20101;-38
2022/07/13 05:33:10;;;;;;;8.73;4.70;;;22.80;99.90;;;;;;5031030;28;20025;-38
2022/07/13 05:35:36;;;;;;;6.85;5.20;;;22.80;99.90;;;;;;5028656;28;20028;-39
2022/07/13 05:38:01;;;;;;;7.97;4.50;;;22.80;99.90;;;;;;5027248;28;20033;-39
2022/07/13 05:40:27;;;;;;;8.20;4.10;;;22.80;99.90;;;;;;5033040;28;21319;-36
2022/07/13 05:42:52;;;;;;;5.85;3.47;;;22.80;99.90;;;;;;5032211;28;20478;-31
2022/07/13 05:45:19;;;;;;;6.63;4.60;;;22.80;99.90;;;;;;5015609;28;20029;-29
2022/07/13 05:47:48;;;;;;;9.88;4.97;;;22.90;99.90;;;;;;5015763;28;20091;-34
2022/07/13 05:50:14;;;;;;;6.60;4.15;;;22.90;99.90;;;;;;5024453;28;20084;-39
2022/07/13 05:52:40;;;;;;;11.07;3.90;;;22.90;99.90;;;;;;5020868;28;20385;-35
2022/07/13 05:55:07;;;;;;;9.50;4.80;;;23.00;99.90;;;;;;5026179;28;20017;-34
2022/07/13 05:57:32;;;;;;;7.72;4.75;;;23.00;99.90;;;;;;5032372;28;20497;-37
2022/07/13 05:59:58;;;;;;;12.70;4.80;;;23.10;99.90;;;;;;5033567;28;20087;-35
2022/07/13 06:02:23;;;;;;;6.03;4.28;;;23.10;99.90;;;;;;5033349;28;20037;-32
2022/07/13 06:04:49;;;;;;;9.57;4.50;;;23.10;99.90;;;;;;5030319;28;20053;-30
2022/07/13 06:07:14;;;;;;;7.47;3.88;;;23.20;99.90;;;;;;5031523;28;20060;-33
2022/07/13 06:09:40;;;;;;;11.40;4.47;;;23.20;99.90;;;;;;5032973;28;20026;-30
2022/07/13 06:12:07;;;;;;;8.10;4.32;;;23.20;99.90;;;;;;5027869;28;20017;-32
2022/07/13 06:14:32;;;;;;;4.37;3.57;;;23.10;99.90;;;;;;5033216;28;20029;-30
2022/07/13 06:16:58;;;;;;;6.00;4.07;;;23.20;99.90;;;;;;5028362;28;20029;-32
2022/07/13 06:19:23;;;;;;;5.40;3.90;;;23.10;99.90;;;;;;5021036;28;20029;-36
2022/07/13 06:21:49;;;;;;;6.22;4.40;;;23.20;99.90;;;;;;5032005;28;20132;-29
2022/07/13 06:24:15;;;;;;;7.18;4.28;;;23.20;99.90;;;;;;5030940;28;20037;-39
2022/07/13 06:26:40;;;;;;;6.13;4.38;;;23.30;99.90;;;;;;5032503;28;20504;-39
2022/07/13 06:29:06;;;;;;;7.18;4.53;;;23.30;99.90;;;;;;5032792;28;20101;-37
2022/07/13 06:31:32;;;;;;;5.65;4.18;;;23.40;99.90;;;;;;5042565;28;20504;-39
2022/07/13 06:33:57;;;;;;;16.48;4.88;;;23.40;99.90;;;;;;5032730;28;20021;-39
2022/07/13 06:36:23;;;;;;;11.32;4.82;;;23.40;99.90;;;;;;5026322;28;20409;-39
2022/07/13 06:38:49;;;;;;;7.78;3.95;;;23.40;99.90;;;;;;5032299;28;20029;-47
2022/07/13 06:41:16;;;;;;;7.63;4.20;;;23.40;99.90;;;;;;5030915;28;20033;-39
2022/07/13 06:43:41;;;;;;;9.45;3.95;;;23.50;99.90;;;;;;5032645;28;20147;-39
2022/07/13 06:46:08;;;;;;;6.20;3.60;;;23.60;99.90;;;;;;5030488;28;20572;-38
2022/07/13 06:48:35;;;;;;;4.90;3.30;;;23.60;99.90;;;;;;5030809;28;20119;-38
2022/07/13 06:51:01;;;;;;;7.05;2.65;;;23.60;99.90;;;;;;5033041;28;20028;-39
2022/07/13 06:53:26;;;;;;;6.63;3.50;;;23.70;99.90;;;;;;5036752;28;20017;-39
2022/07/13 06:55:52;;;;;;;5.38;3.67;;;23.70;99.90;;;;;;5013316;28;20034;-38
2022/07/13 06:58:17;;;;;;;9.63;3.42;;;23.70;99.90;;;;;;5024657;28;20433;-39
2022/07/13 07:00:43;;;;;;;5.40;2.75;;;23.80;99.90;;;;;;5026457;28;20109;-38
2022/07/13 07:03:09;;;;;;;4.72;3.40;;;24.00;99.90;;;;;;5025104;28;20049;-38
2022/07/13 07:05:34;;;;;;;6.05;3.50;;;24.10;99.90;;;;;;5027884;28;20028;-39
2022/07/13 07:08:02;;;;;;;8.50;3.45;;;24.20;99.90;;;;;;5032733;28;20374;-39
2022/07/13 07:10:28;;;;;;;4.93;3.63;;;24.40;99.90;;;;;;5031891;28;20466;-42
2022/07/13 07:12:54;;;;;;;4.82;3.30;;;24.70;99.90;;;;;;5030068;28;20017;-39
2022/07/13 07:15:19;;;;;;;4.55;3.35;;;25.20;99.90;;;;;;5030894;28;20105;-40
2022/07/13 07:17:46;;;;;;;3.50;2.63;;;25.40;99.90;;;;;;5012536;28;20497;-39
2022/07/13 07:20:13;;;;;;;3.47;3.00;;;25.40;99.90;;;;;;5008212;28;20081;-38
2022/07/13 07:22:39;;;;;;;3.00;2.70;;;25.30;99.90;;;;;;5028545;28;20422;-53
2022/07/13 07:25:07;;;;;;;2.80;2.60;;;25.20;99.90;;;;;;5028075;28;20109;-39
2022/07/13 07:27:32;;;;;;;4.20;3.08;;;25.40;99.90;;;;;;5038235;28;20018;-47
2022/07/13 07:29:58;;;;;;;8.32;3.40;;;25.40;99.90;;;;;;5036363;28;20075;-39
2022/07/13 07:32:24;;;;;;;7.80;3.47;;;25.80;99.90;;;;;;5036651;28;20113;-40
2022/07/13 07:34:50;;;;;;;6.45;3.67;;;25.70;99.90;;;;;;5036150;28;20021;-40
2022/07/13 07:37:18;;;;;;;3.17;2.88;;;26.00;99.90;;;;;;5036651;28;20072;-39
2022/07/13 07:39:44;;;;;;;3.40;3.10;;;26.10;99.90;;;;;;5036229;28;20017;-39
2022/07/13 07:42:10;;;;;;;4.30;3.15;;;26.70;99.90;;;;;;5034868;28;20509;-39
2022/07/13 07:44:35;;;;;;;3.72;2.92;;;27.10;99.90;;;;;;5036691;28;20033;-39
2022/07/13 07:47:01;;;;;;;4.80;2.90;;;27.40;99.90;;;;;;5036615;28;20021;-39
2022/07/13 07:49:27;;;;;;;2.83;2.53;;;27.60;99.90;;;;;;5036428;28;20244;-40
2022/07/13 07:51:52;;;;;;;6.38;3.78;;;27.60;99.90;;;;;;5018833;28;20033;-40
2022/07/13 07:54:18;;;;;;;5.75;3.25;;;27.60;99.90;;;;;;5035033;28;20113;-44
2022/07/13 07:56:43;;;;;;;13.40;3.20;;;27.60;99.90;;;;;;5017506;28;20392;-40
2022/07/13 07:59:09;;;;;;;4.50;2.83;;;27.40;99.90;;;;;;5036040;28;20037;-38
2022/07/13 08:01:35;;;;;;;5.40;2.63;;;27.40;99.90;;;;;;5026395;28;20038;-40
2022/07/13 08:04:00;;;;;;;5.00;3.15;;;27.50;99.90;;;;;;5000342;28;20045;-35
2022/07/13 08:06:26;;;;;;;2.78;2.58;;;27.70;99.90;;;;;;5016976;28;20038;-32
2022/07/13 08:08:52;;;;;;;3.90;2.53;;;28.10;99.90;;;;;;5042940;28;20038;-33
2022/07/13 08:11:18;;;;;;;3.38;2.53;;;28.20;99.90;;;;;;5056263;28;20049;-33
2022/07/13 08:13:47;;;;;;;3.35;2.15;;;28.00;99.90;;;;;;5040651;28;20026;-34
2022/07/13 08:16:32;;;;;;;4.43;2.50;;;27.40;99.90;;;;;;5035188;28;20025;-37
2022/07/13 08:18:57;;;;;;;3.75;2.40;;;26.90;99.90;;;;;;5049332;28;20472;-35
2022/07/13 08:21:23;;;;;;;3.55;2.33;;;26.90;99.90;;;;;;5049685;28;20028;-43
2022/07/13 08:23:51;;;;;;;3.67;2.17;;;27.20;99.90;;;;;;5032248;28;20561;-32
2022/07/13 08:26:24;;;;;;;5.03;2.40;;;27.30;99.90;;;;;;5028498;28;20025;-32
2022/07/13 08:28:52;;;;;;;3.97;2.35;;;27.60;99.90;;;;;;5034352;28;20036;-34
2022/07/13 08:31:21;;;;;;;2.35;1.88;;;27.80;99.90;;;;;;5033029;28;20049;-36
2022/07/13 08:39:17;;;;;;;5.18;2.40;;;28.30;99.90;;;;;;5031260;28;20040;-37
2022/07/13 08:41:42;;;;;;;7.60;1.80;;;28.40;99.90;;;;;;5031932;28;20027;-34
2022/07/13 08:44:08;;;;;;;3.08;1.73;;;28.10;99.50;;;;;;5030427;28;20553;-36
2022/07/13 08:46:34;;;;;;;4.13;2.20;;;28.30;99.90;;;;;;5027941;28;20033;-35
2022/07/13 08:49:01;;;;;;;2.03;1.83;;;28.40;99.90;;;;;;5031641;28;20397;-34
2022/07/13 08:51:26;;;;;;;2.45;1.70;;;28.40;99.90;;;;;;5033242;28;20571;-33
2022/07/13 08:53:54;;;;;;;3.15;1.80;;;28.70;99.70;;;;;;5014437;28;20381;-47
2022/07/13 08:56:20;;;;;;;4.55;2.03;;;29.10;98.80;;;;;;5023862;28;20031;-37
2022/07/13 08:58:46;;;;;;;4.13;1.93;;;29.10;99.20;;;;;;5028489;28;20041;-39
2022/07/13 09:01:12;;;;;;;2.20;1.50;;;28.50;99.40;;;;;;5022427;28;20742;-40
2022/07/13 09:03:38;;;;;;;2.63;1.80;;;28.40;99.60;;;;;;5026426;28;20037;-37
2022/07/13 09:06:04;;;;;;;2.17;1.70;;;28.80;99.20;;;;;;5030835;28;20021;-31
2022/07/13 09:08:31;;;;;;;2.45;1.77;;;29.10;98.10;;;;;;5036618;28;20458;-32
2022/07/13 09:11:01;;;;;;;1.65;1.55;;;29.30;98.50;;;;;;5042708;28;20521;-31
2022/07/13 09:13:46;;;;;;;2.83;1.80;;;29.70;98.50;;;;;;5015433;28;20041;-32
2022/07/13 09:16:17;;;;;;;2.22;1.83;;;29.90;97.90;;;;;;5034145;28;20470;-30
2022/07/13 09:18:47;;;;;;;3.97;1.58;;;29.90;97.40;;;;;;5034062;28;20026;-33
2022/07/13 09:21:13;;;;;;;1.52;1.17;;;30.10;96.30;;;;;;5031135;28;20083;-32
2022/07/13 09:23:39;;;;;;;1.30;1.20;;;30.20;95.90;;;;;;5033364;28;20355;-35
2022/07/13 09:26:05;;;;;;;2.53;1.30;;;30.30;95.60;;;;;;5035904;28;20045;-32
2022/07/13 09:28:48;;;;;;;3.65;1.70;;;30.20;95.00;;;;;;5034811;28;20029;-33
2022/07/13 09:31:15;;;;;;;4.82;1.30;;;30.30;95.20;;;;;;5005835;28;20497;-35
2022/07/13 09:33:44;;;;;;;2.90;1.40;;;30.10;95.80;;;;;;5032078;28;20045;-30
2022/07/13 09:36:14;;;;;;;1.10;1.10;;;29.70;96.20;;;;;;5033004;28;20021;-39
2022/07/13 09:38:45;;;;;;;1.77;1.55;;;29.60;96.00;;;;;;5029803;28;20037;-36
2022/07/13 09:41:26;;;;;;;13.27;2.03;;;29.50;96.30;;;;;;5027741;28;20029;-38
2022/07/13 09:46:52;;;;;;;1.40;1.30;;;29.40;96.00;;;;;;5030242;28;20040;-35
2022/07/13 09:49:19;;;;;;;4.25;1.42;;;29.50;96.50;;;;;;5028678;28;20497;-36
2022/07/13 09:51:45;;;;;;;5.30;1.30;;;29.60;95.50;;;;;;5024534;28;20507;-37
2022/07/13 09:54:12;;;;;;;2.17;1.30;;;29.60;95.40;;;;;;5029228;28;20064;-38
2022/07/13 09:56:47;;;;;;;2.15;1.42;;;29.40;94.90;;;;;;5028258;28;20021;-39
2022/07/13 09:59:13;;;;;;;1.35;1.20;;;29.40;95.10;;;;;;5026064;28;20405;-39
2022/07/13 10:01:38;;;;;;;1.45;1.25;;;29.50;95.80;;;;;;5030013;28;20113;-39
2022/07/13 10:04:05;;;;;;;1.30;1.20;;;29.60;95.10;;;;;;5024535;28;20456;-39
2022/07/13 10:06:31;;;;;;;4.53;1.50;;;29.60;94.20;;;;;;5028712;28;20449;-37
2022/07/13 10:08:58;;;;;;;3.83;1.70;;;29.70;94.50;;;;;;5029164;28;20049;-40
2022/07/13 10:11:23;;;;;;;2.00;1.23;;;30.10;94.50;;;;;;5030484;28;20021;-40
2022/07/13 10:13:50;;;;;;;5.60;0.97;;;30.30;93.50;;;;;;5032661;28;20496;-39
2022/07/13 10:16:16;;;;;;;2.53;2.17;;;30.20;93.90;;;;;;5031578;28;20043;-39
2022/07/13 10:18:43;;;;;;;3.45;1.40;;;30.40;94.20;;;;;;5014688;28;20033;-38
2022/07/13 10:21:19;;;;;;;7.15;1.80;;;30.40;94.00;;;;;;5031055;28;20549;-38
2022/07/13 10:23:45;;;;;;;11.98;1.65;;;30.20;93.90;;;;;;5032753;28;20064;-38
2022/07/13 10:26:24;;;;;;;3.33;1.45;;;29.80;94.10;;;;;;5032449;28;20056;-36
2022/07/13 10:29:05;;;;;;;1.95;1.73;;;29.20;94.60;;;;;;5026496;28;20025;-39
2022/07/13 10:31:33;;;;;;;7.88;1.60;;;28.80;95.20;;;;;;5032290;28;20061;-38
2022/07/13 10:34:00;;;;;;;3.20;1.85;;;28.40;95.40;;;;;;5031650;28;20083;-39
2022/07/13 10:36:52;;;;;;;2.33;2.08;;;28.50;96.20;;;;;;5032607;28;20566;-39
2022/07/13 10:39:19;;;;;;;2.00;1.60;;;28.80;96.50;;;;;;5022480;28;20120;-38
2022/07/13 10:42:10;;;;;;;1.77;1.50;;;29.00;96.00;;;;;;5032442;28;20037;-38
2022/07/13 10:44:42;;;;;;;3.58;1.60;;;29.30;95.60;;;;;;5023115;28;20481;-40
2022/07/13 10:47:11;;;;;;;4.15;1.77;;;29.70;95.80;;;;;;5032132;28;20469;-62
2022/07/13 10:49:46;;;;;;;1.83;1.55;;;30.00;95.40;;;;;;5031672;28;20037;-39
2022/07/13 10:55:11;;;;;;;2.80;1.90;;;29.40;95.20;;;;;;5033596;28;20021;-34
2022/07/13 10:57:38;;;;;;;1.70;1.45;;;28.70;95.90;;;;;;5032374;28;20029;-35
2022/07/13 11:00:18;;;;;;;7.53;1.80;;;28.60;95.60;;;;;;5032597;28;20385;-36
2022/07/13 11:02:51;;;;;;;8.20;1.67;;;28.90;95.70;;;;;;5023819;28;20052;-34
2022/07/13 11:05:24;;;;;;;4.22;1.42;;;29.10;95.90;;;;;;5030533;28;20059;-32
2022/07/13 11:07:51;;;;;;;6.55;1.90;;;29.20;95.80;;;;;;5027038;28;20051;-35
2022/07/13 11:10:30;;;;;;;5.03;1.75;;;29.00;96.20;;;;;;5032032;28;20025;-35
2022/07/13 11:13:10;;;;;;;9.73;2.15;;;28.60;95.60;;;;;;5028969;28;20037;-31
2022/07/13 11:15:52;;;;;;;3.53;1.98;;;28.70;96.40;;;;;;5031855;28;20381;-37
2022/07/13 11:18:28;;;;;;;7.13;2.10;;;28.70;96.60;;;;;;5031487;28;20099;-34
2022/07/13 11:20:57;;;;;;;;;;;28.80;96.50;;;;;;5032070;28;20032;-34
2022/07/13 11:26:28;;;;;;;1.85;1.63;;;28.40;96.70;;;;;;5026744;28;20095;-33
2022/07/13 11:29:17;;;;;;;7.38;2.42;;;27.80;97.00;;;;;;5031119;28;20485;-32
2022/07/13 11:31:43;;;;;;;3.20;1.98;;;27.30;97.70;;;;;;5031492;28;20112;-31
2022/07/13 11:34:09;;;;;;;1.70;1.60;;;27.20;98.00;;;;;;5031702;28;20022;-32
2022/07/13 11:36:36;;;;;;;3.15;1.75;;;27.50;97.50;;;;;;5032229;28;20038;-32
2022/07/13 11:39:02;;;;;;;2.50;2.20;;;27.70;97.40;;;;;;5031570;28;20022;-30
2022/07/13 11:41:27;;;;;;;2.17;1.98;;;27.90;97.70;;;;;;5030770;28;20473;-32
2022/07/13 11:43:53;;;;;;;4.10;1.55;;;27.70;97.30;;;;;;5031299;28;20033;-35
2022/07/13 11:46:27;;;;;;;3.50;2.00;;;27.40;97.40;;;;;;5030970;28;20038;-33
2022/07/13 11:49:01;;;;;;;2.35;1.80;;;27.10;97.60;;;;;;5030935;28;20513;-30
2022/07/13 11:51:26;;;;;;;7.45;2.58;;;26.70;98.20;;;;;;5030791;28;20058;-29
2022/07/13 11:53:52;;;;;;;4.15;1.80;;;26.60;98.90;;;;;;5030997;28;20034;-34
2022/07/13 11:56:18;;;;;;;2.15;2.00;;;26.50;99.40;;;;;;5031733;28;20024;-31
2022/07/13 11:58:45;;;;;;;9.07;2.17;;;26.60;99.50;;;;;;5030209;28;20436;-30
2022/07/13 12:01:11;;;;;;;;;;;26.90;99.30;;;;;;5032025;28;20032;-29
2022/07/13 12:03:37;;;;;;;4.47;2.00;;;27.00;98.40;;;;;;5031590;28;19940;-29
2022/07/13 12:06:05;;;;;;;6.80;2.13;;;27.10;98.40;;;;;;5030709;28;20268;-32
2022/07/13 12:08:36;;;;;;;3.80;2.00;;;26.90;98.60;;;;;;5030698;28;20022;-35
2022/07/13 12:11:04;;;;;;;2.28;1.63;;;26.80;98.50;;;;;;5030501;28;20025;-35
2022/07/13 12:13:34;;;;;;;2.45;2.00;;;26.90;98.60;;;;;;5030144;28;20171;-29
2022/07/13 12:16:00;;;;;;;3.80;1.80;;;27.20;98.50;;;;;;5036006;28;20577;-45
2022/07/13 12:18:26;;;;;;;2.63;1.60;;;27.30;98.30;;;;;;5030599;28;20149;-39
2022/07/13 12:20:51;;;;;;;2.13;1.60;;;27.20;98.30;;;;;;5034183;28;20029;-31
2022/07/13 12:23:17;;;;;;;2.50;1.77;;;27.10;97.80;;;;;;5033458;28;20026;-48
2022/07/13 12:25:43;;;;;;;2.47;1.83;;;26.90;97.90;;;;;;5033760;28;20033;-35
2022/07/13 12:28:10;;;;;;;1.77;1.33;;;26.90;98.20;;;;;;5033012;28;20395;-29
2022/07/13 12:30:53;;;;;;;1.88;1.65;;;26.90;98.30;;;;;;5016216;28;20417;-33
2022/07/13 12:33:19;;;;;;;4.38;1.80;;;27.10;98.60;;;;;;5016440;28;20029;-31
2022/07/13 12:35:45;;;;;;;4.75;1.75;;;27.30;98.30;;;;;;5034829;28;20496;-31
2022/07/13 12:38:14;;;;;;;6.75;1.85;;;27.10;97.90;;;;;;5034273;28;20044;-49
2022/07/13 12:40:44;;;;;;;3.83;1.83;;;26.90;98.50;;;;;;5016653;28;20515;-38
2022/07/13 12:43:26;;;;;;;2.28;1.80;;;26.80;98.80;;;;;;5034770;28;20489;-34
2022/07/13 12:46:02;;;;;;;4.68;1.65;;;26.60;98.50;;;;;;5034069;28;20048;-36
2022/07/13 12:48:34;;;;;;;2.50;1.75;;;26.80;98.80;;;;;;5025050;28;20049;-34
2022/07/13 12:51:08;;;;;;;5.43;1.75;;;27.00;98.50;;;;;;5033310;28;20421;-34
2022/07/13 12:53:52;;;;;;;2.83;1.77;;;27.10;98.60;;;;;;5033170;28;20528;-33
2022/07/13 12:56:28;;;;;;;1.52;1.42;;;27.50;98.80;;;;;;5034458;28;20123;-30
2022/07/13 12:59:01;;;;;;;3.83;1.40;;;27.60;96.90;;;;;;5034306;28;20025;-34
2022/07/13 13:01:35;;;;;;;2.22;1.58;;;27.70;97.20;;;;;;5033678;28;20040;-34